Time;durP1;ratioP1;P1;durP2;ratioP2;P2;SDS_P1;SDS_P2;PMS_P1;PMS_P2;Temp;Humidity;BMP_temperature;BMP_pressure;BME280_temperature;BME280_humidity;BME280_pressure;Samples;Min_cycle;Max_cycle;Signal;HPM_P1;HPM_P2
2022/01/03 00:00:52;;;;;;;30.00;3.38;;;;;;;10.03;100.00;101348.22;5270293;28;20034;-74
2022/01/03 00:03:22;;;;;;;29.45;4.20;;;;;;;10.07;100.00;101354.13;5270973;28;20031;-73
2022/01/03 00:05:53;;;;;;;28.13;4.88;;;;;;;10.09;100.00;101355.69;5268052;28;20016;-74
2022/01/03 00:08:24;;;;;;;19.83;4.25;;;;;;;10.10;100.00;101354.69;5279126;28;20024;-74
2022/01/03 00:10:56;;;;;;;20.35;3.25;;;;;;;10.14;100.00;101347.19;5266158;28;20036;-74
2022/01/03 00:13:27;;;;;;;18.05;2.90;;;;;;;10.15;100.00;101348.03;5270298;28;20499;-74
2022/01/03 00:15:57;;;;;;;18.08;3.45;;;;;;;10.16;100.00;101350.56;5283446;28;20032;-75
2022/01/03 00:18:28;;;;;;;16.25;2.70;;;;;;;10.15;100.00;101356.91;5264291;28;20035;-74
2022/01/03 00:21:00;;;;;;;19.65;2.95;;;;;;;10.09;100.00;101361.03;5273679;28;20058;-74
2022/01/03 00:23:35;;;;;;;22.25;3.63;;;;;;;10.05;100.00;101366.84;5273626;28;20024;-74
2022/01/03 00:26:08;;;;;;;23.70;2.95;;;;;;;10.10;100.00;101353.84;5275089;28;20027;-75
2022/01/03 00:28:46;;;;;;;23.17;2.92;;;;;;;10.13;100.00;101364.25;5271390;28;20020;-75
2022/01/03 00:31:18;;;;;;;23.25;3.83;;;;;;;10.13;100.00;101362.41;5278681;28;20027;-75
2022/01/03 00:33:51;;;;;;;26.35;3.08;;;;;;;10.16;100.00;101363.97;5272174;28;20035;-74
2022/01/03 00:36:22;;;;;;;21.60;2.67;;;;;;;10.22;100.00;101373.22;5276035;27;20131;-74
2022/01/03 00:38:55;;;;;;;20.20;3.28;;;;;;;10.20;100.00;101369.88;5274316;28;20536;-74
2022/01/03 00:41:25;;;;;;;21.80;3.67;;;;;;;10.08;100.00;101371.91;5273897;27;20028;-74
2022/01/03 00:43:56;;;;;;;28.50;3.58;;;;;;;10.04;100.00;101382.09;5277995;28;20077;-74
2022/01/03 00:46:27;;;;;;;27.13;3.65;;;;;;;10.00;100.00;101372.66;5276585;28;20038;-74
2022/01/03 00:49:00;;;;;;;23.63;3.22;;;;;;;9.99;100.00;101373.66;5271911;28;20032;-74
2022/01/03 00:51:31;;;;;;;25.08;3.83;;;;;;;10.06;100.00;101377.41;5279070;28;20038;-74
2022/01/03 00:54:03;;;;;;;19.45;3.33;;;;;;;10.13;100.00;101377.66;5283058;28;20400;-74
2022/01/03 00:56:36;;;;;;;23.15;2.65;;;;;;;10.05;100.00;101378.41;5279227;27;20032;-74
2022/01/03 00:59:07;;;;;;;18.58;3.28;;;;;;;9.97;100.00;101391.72;5282774;28;20015;-74
2022/01/03 01:01:44;;;;;;;25.58;3.53;;;;;;;9.92;100.00;101375.22;5280231;28;20085;-74
2022/01/03 01:04:17;;;;;;;24.98;3.25;;;;;;;9.88;100.00;101379.19;5282735;28;20016;-74
2022/01/03 01:06:51;;;;;;;29.52;3.45;;;;;;;9.92;100.00;101382.44;5280654;28;20022;-74
2022/01/03 01:09:25;;;;;;;17.35;3.22;;;;;;;9.97;100.00;101372.09;5280193;28;20036;-74
2022/01/03 01:11:59;;;;;;;20.05;3.00;;;;;;;9.98;100.00;101385.34;5277001;28;20033;-73
2022/01/03 01:14:30;;;;;;;26.80;3.40;;;;;;;9.95;100.00;101380.31;5279939;28;20449;-74
2022/01/03 01:17:01;;;;;;;20.02;4.35;;;;;;;9.97;100.00;101389.03;5282907;28;20030;-74
2022/01/03 01:19:32;;;;;;;20.67;2.30;;;;;;;10.00;100.00;101378.03;5270739;28;20103;-74
2022/01/03 01:22:02;;;;;;;24.98;3.65;;;;;;;10.02;100.00;101380.53;5273852;28;20023;-74
2022/01/03 01:24:45;;;;;;;24.08;3.72;;;;;;;10.02;100.00;101378.72;5271196;28;20508;-74
2022/01/03 01:30:06;;;;;;;19.50;3.00;;;;;;;9.97;100.00;101385.50;5272480;28;20502;-73
2022/01/03 01:32:41;;;;;;;25.23;3.50;;;;;;;10.01;100.00;101392.28;5268806;27;20064;-73
2022/01/03 01:35:12;;;;;;;24.90;2.97;;;;;;;10.04;100.00;101389.28;5272536;28;20027;-74
2022/01/03 01:37:45;;;;;;;20.25;3.17;;;;;;;10.04;100.00;101390.13;5268480;28;20396;-73
2022/01/03 01:40:16;;;;;;;33.30;4.72;;;;;;;10.02;100.00;101386.75;5267824;28;20088;-73
2022/01/03 01:42:48;;;;;;;21.25;2.67;;;;;;;10.05;100.00;101386.47;5270757;28;20024;-73
2022/01/03 01:45:20;;;;;;;29.13;3.17;;;;;;;10.02;100.00;101384.06;5271774;28;20413;-73
2022/01/03 01:47:57;;;;;;;22.55;3.33;;;;;;;10.03;100.00;101379.53;5267863;28;20039;-73
2022/01/03 01:50:28;;;;;;;27.55;5.82;;;;;;;10.03;100.00;101377.72;5278970;28;20435;-73
2022/01/03 01:53:05;;;;;;;29.73;3.30;;;;;;;10.04;100.00;101368.69;5279684;28;20519;-73
2022/01/03 01:55:52;;;;;;;25.48;3.20;;;;;;;9.96;100.00;101368.59;5277226;28;20107;-73
2022/01/03 01:58:23;;;;;;;30.83;3.05;;;;;;;9.93;100.00;101370.72;5280656;28;20027;-73
2022/01/03 02:01:00;;;;;;;22.63;2.95;;;;;;;9.85;100.00;101371.47;5277065;28;20437;-73
2022/01/03 02:03:55;;;;;;;26.35;3.65;;;;;;;9.80;100.00;101371.06;5279182;28;20092;-74
2022/01/03 02:06:45;;;;;;;17.60;2.97;;;;;;;9.83;100.00;101376.13;5273375;28;20026;-74
2022/01/03 02:09:42;;;;;;;22.55;3.13;;;;;;;9.91;100.00;101372.72;5270231;28;20484;-73
2022/01/03 02:12:16;;;;;;;22.15;3.35;;;;;;;9.95;100.00;101372.28;5274785;28;20481;-73
2022/01/03 02:14:51;;;;;;;29.13;4.63;;;;;;;9.96;100.00;101375.78;5266857;28;20024;-73
2022/01/03 02:17:24;;;;;;;20.45;3.85;;;;;;;9.95;100.00;101372.28;5281790;28;20110;-74
2022/01/03 02:20:07;;;;;;;27.73;3.13;;;;;;;10.00;100.00;101363.78;5276173;27;20023;-73
2022/01/03 02:22:40;;;;;;;28.35;3.10;;;;;;;9.97;100.00;101388.19;5281239;28;20046;-74
2022/01/03 02:25:25;;;;;;;20.55;4.25;;;;;;;10.02;100.00;101376.03;5277053;28;20365;-74
2022/01/03 02:27:56;;;;;;;27.38;4.07;;;;;;;10.03;100.00;101380.38;5279278;27;20102;-74
2022/01/03 02:30:35;;;;;;;20.58;3.55;;;;;;;9.99;100.00;101380.84;5279250;28;20030;-73
2022/01/03 02:33:07;;;;;;;29.95;3.35;;;;;;;10.00;100.00;101386.06;5276498;27;20043;-74
2022/01/03 02:35:40;;;;;;;21.75;2.72;;;;;;;9.93;100.00;101387.63;5280321;28;20026;-74
2022/01/03 02:38:11;;;;;;;23.45;3.38;;;;;;;9.89;100.00;101391.63;5275701;28;20023;-73
2022/01/03 02:40:43;;;;;;;26.80;3.97;;;;;;;9.91;100.00;101389.63;5280529;28;20020;-73
2022/01/03 02:43:14;;;;;;;25.52;2.90;;;;;;;9.97;100.00;101383.66;5276529;28;20020;-74
2022/01/03 02:45:45;;;;;;;29.25;4.70;;;;;;;9.92;100.00;101377.91;5278385;27;20021;-74
2022/01/03 02:48:16;;;;;;;27.67;2.80;;;;;;;9.83;100.00;101376.13;5273142;28;20504;-74
2022/01/03 02:50:46;;;;;;;22.75;3.88;;;;;;;9.82;100.00;101379.81;5272957;28;20511;-74
2022/01/03 02:53:19;;;;;;;24.30;4.97;;;;;;;9.78;100.00;101367.69;5275236;28;20027;-74
2022/01/03 02:55:50;;;;;;;27.08;3.80;;;;;;;9.74;100.00;101382.38;5272124;28;20029;-74
2022/01/03 02:58:21;;;;;;;24.40;3.25;;;;;;;9.68;100.00;101382.97;5274636;28;20077;-74
2022/01/03 03:00:52;;;;;;;16.45;3.33;;;;;;;9.60;100.00;101379.19;5272482;28;20384;-74
2022/01/03 03:03:22;;;;;;;31.77;5.28;;;;;;;9.61;100.00;101388.06;5274288;28;20016;-74
2022/01/03 03:05:54;;;;;;;23.67;2.60;;;;;;;9.65;100.00;101389.47;5272337;28;20829;-73
2022/01/03 03:08:25;;;;;;;26.42;3.65;;;;;;;9.65;100.00;101375.25;5278504;27;20027;-74
2022/01/03 03:10:57;;;;;;;30.67;3.42;;;;;;;9.65;100.00;101380.59;5275860;28;20389;-74
2022/01/03 03:13:27;;;;;;;23.40;3.92;;;;;;;9.63;100.00;101386.06;5270209;28;20023;-74
2022/01/03 03:15:59;;;;;;;16.05;2.97;;;;;;;9.71;100.00;101383.53;5274688;28;20028;-74
2022/01/03 03:18:30;;;;;;;24.88;3.28;;;;;;;9.76;100.00;101388.44;5272898;28;20392;-73
2022/01/03 03:21:00;;;;;;;35.03;4.53;;;;;;;9.86;100.00;101389.25;5275720;28;20031;-75
2022/01/03 03:23:31;;;;;;;30.05;3.33;;;;;;;9.89;100.00;101388.06;5284642;28;20089;-75
2022/01/03 03:26:01;;;;;;;24.13;3.13;;;;;;;9.91;100.00;101386.94;5283802;27;20020;-75
2022/01/03 03:28:32;;;;;;;29.08;2.70;;;;;;;9.93;100.00;101382.28;5285919;28;20027;-74
2022/01/03 03:31:03;;;;;;;32.13;4.47;;;;;;;9.90;100.00;101379.91;5279900;28;20057;-75
2022/01/03 03:33:33;;;;;;;24.45;3.58;;;;;;;9.91;100.00;101389.63;5284099;27;20440;-74
2022/01/03 03:36:04;;;;;;;20.98;3.25;;;;;;;9.94;100.00;101384.00;5269867;28;20073;-74
2022/01/03 03:38:35;;;;;;;23.95;5.53;;;;;;;9.99;100.00;101387.06;5273948;28;20107;-75
2022/01/03 03:41:05;;;;;;;19.98;3.58;;;;;;;9.99;100.00;101392.44;5279789;28;20106;-75
2022/01/03 03:43:36;;;;;;;27.00;2.95;;;;;;;9.98;100.00;101389.88;5273695;28;20552;-74
2022/01/03 03:46:07;;;;;;;24.05;3.35;;;;;;;9.94;100.00;101391.16;5281307;28;20369;-75
2022/01/03 03:48:39;;;;;;;32.40;3.38;;;;;;;9.95;100.00;101385.66;5278618;27;20024;-74
2022/01/03 03:51:09;;;;;;;27.27;3.10;;;;;;;9.90;100.00;101374.56;5280946;28;20016;-74
2022/01/03 03:53:40;;;;;;;24.77;3.20;;;;;;;9.88;100.00;101379.19;5275542;28;20028;-74
2022/01/03 03:56:10;;;;;;;24.00;3.33;;;;;;;9.87;100.00;101382.88;5281523;28;20098;-74
2022/01/03 03:58:41;;;;;;;33.60;3.97;;;;;;;9.88;100.00;101379.19;5275898;28;20032;-74
2022/01/03 04:01:11;;;;;;;18.50;2.85;;;;;;;9.83;100.00;101376.13;5278405;27;20032;-74
2022/01/03 04:03:41;;;;;;;20.70;2.60;;;;;;;9.76;100.00;101377.72;5275992;28;20055;-74
2022/01/03 04:06:12;;;;;;;33.65;3.83;;;;;;;9.72;100.00;101371.81;5278836;28;20032;-75
2022/01/03 04:08:44;;;;;;;22.55;2.97;;;;;;;9.69;100.00;101369.44;5269399;28;20059;-75
2022/01/03 04:11:14;;;;;;;27.48;3.63;;;;;;;9.72;100.00;101361.09;5275422;28;20226;-75
2022/01/03 04:13:45;;;;;;;25.30;4.22;;;;;;;9.68;100.00;101357.00;5279226;28;20035;-75
2022/01/03 04:16:16;;;;;;;20.65;3.30;;;;;;;9.66;100.00;101360.84;5276756;28;20032;-74
2022/01/03 04:18:46;;;;;;;27.77;4.97;;;;;;;9.62;100.00;101357.59;5277749;28;20024;-74
2022/01/03 04:21:17;;;;;;;16.83;2.90;;;;;;;9.62;100.00;101343.38;5270434;28;20031;-75
2022/01/03 04:23:47;;;;;;;24.27;2.90;;;;;;;9.54;100.00;101344.97;5270727;28;20027;-74
2022/01/03 04:26:18;;;;;;;21.38;3.78;;;;;;;9.49;100.00;101349.09;5274743;28;20479;-74
2022/01/03 04:28:49;;;;;;;27.70;3.53;;;;;;;9.52;100.00;101341.56;5271889;28;20473;-74
2022/01/03 04:31:19;;;;;;;21.73;3.03;;;;;;;9.48;100.00;101332.13;5267752;28;20027;-74
2022/01/03 04:33:50;;;;;;;26.83;2.63;;;;;;;9.41;100.00;101333.72;5270016;28;20063;-74
2022/01/03 04:36:20;;;;;;;23.98;3.22;;;;;;;9.39;100.00;101343.75;5267797;28;20020;-74
2022/01/03 04:38:51;;;;;;;25.23;3.25;;;;;;;9.39;100.00;101337.53;5270220;28;20485;-74
2022/01/03 04:41:22;;;;;;;23.95;3.63;;;;;;;9.41;100.00;101332.88;5277498;28;20106;-74
2022/01/03 04:43:52;;;;;;;17.73;2.90;;;;;;;9.40;100.00;101337.41;5266405;28;20123;-74
2022/01/03 04:46:22;;;;;;;24.10;3.42;;;;;;;9.44;100.00;101340.63;5268324;28;20024;-74
2022/01/03 04:48:53;;;;;;;21.52;2.50;;;;;;;9.43;100.00;101339.78;5277360;28;20022;-74
2022/01/03 04:51:24;;;;;;;24.20;2.80;;;;;;;9.45;100.00;101331.63;5272439;28;20027;-75
2022/01/03 04:53:54;;;;;;;20.90;3.55;;;;;;;9.47;100.00;101322.44;5272814;28;20024;-75
2022/01/03 04:56:27;;;;;;;24.20;3.33;;;;;;;9.51;100.00;101317.63;5273516;28;20024;-74
2022/01/03 04:58:57;;;;;;;24.42;2.47;;;;;;;9.58;100.00;101316.88;5271023;28;20032;-75
2022/01/03 05:01:28;;;;;;;37.40;4.35;;;;;;;9.63;100.00;101328.97;5274969;28;20020;-75
2022/01/03 05:03:58;;;;;;;17.92;3.13;;;;;;;9.64;100.00;101322.63;5270114;28;20051;-75
2022/01/03 05:06:29;;;;;;;27.60;6.13;;;;;;;9.69;100.00;101321.22;5274126;28;20046;-73
2022/01/03 05:09:00;;;;;;;26.13;3.53;;;;;;;9.69;100.00;101321.22;5270546;28;20385;-74
2022/01/03 05:11:30;;;;;;;29.83;3.63;;;;;;;9.72;100.00;101320.06;5275793;28;20120;-74
2022/01/03 05:14:01;;;;;;;21.13;2.83;;;;;;;9.69;100.00;101317.66;5266144;28;20024;-75
2022/01/03 05:16:31;;;;;;;18.02;3.10;;;;;;;9.72;100.00;101315.53;5272392;28;20040;-75
2022/01/03 05:19:02;;;;;;;32.33;5.38;;;;;;;9.74;100.00;101301.97;5272257;28;20393;-75
2022/01/03 05:21:32;;;;;;;29.27;4.28;;;;;;;9.75;100.00;101303.69;5272899;28;20139;-75
2022/01/03 05:24:03;;;;;;;26.88;4.95;;;;;;;9.78;100.00;101314.09;5270052;28;20062;-75
2022/01/03 05:26:33;;;;;;;14.05;2.58;;;;;;;9.79;100.00;101303.25;5266423;28;20020;-75
2022/01/03 05:29:04;;;;;;;24.85;3.65;;;;;;;9.80;100.00;101306.78;5267786;28;20028;-75
2022/01/03 05:31:35;;;;;;;22.02;4.10;;;;;;;9.82;100.00;101310.13;5265795;28;20085;-75
2022/01/03 05:34:05;;;;;;;24.05;7.20;;;;;;;9.82;100.00;101300.25;5268591;28;20027;-74
2022/01/03 05:36:36;;;;;;;22.38;4.75;;;;;;;9.82;100.00;101305.59;5266226;28;20107;-75
2022/01/03 05:39:06;;;;;;;18.77;2.78;;;;;;;9.79;100.00;101302.41;5277686;28;20024;-74
2022/01/03 05:41:36;;;;;;;25.27;4.32;;;;;;;9.85;100.00;101304.47;5266635;28;20534;-74
2022/01/03 05:44:08;;;;;;;28.58;4.35;;;;;;;9.82;100.00;101294.88;5269072;28;20110;-75
2022/01/03 05:46:38;;;;;;;17.17;3.67;;;;;;;9.82;100.00;101296.72;5267957;28;20445;-74
2022/01/03 05:49:11;;;;;;;24.95;3.38;;;;;;;9.79;100.00;101297.03;5274045;28;20055;-74
2022/01/03 05:51:41;;;;;;;25.58;2.83;;;;;;;9.79;100.00;101284.50;5270373;28;21229;-75
2022/01/03 05:54:12;;;;;;;34.10;5.00;;;;;;;9.80;100.00;101286.16;5283655;28;20027;-74
2022/01/03 05:56:43;;;;;;;21.63;3.22;;;;;;;9.79;100.00;101291.69;5266779;28;20032;-74
2022/01/03 05:59:13;;;;;;;30.42;4.25;;;;;;;9.72;100.00;101286.06;5275266;28;20373;-74
2022/01/03 06:01:45;;;;;;;20.65;3.13;;;;;;;9.69;100.00;101293.56;5282959;27;20388;-73
2022/01/03 06:07:08;;;;;;;22.27;3.38;;;;;;;9.68;100.00;101283.84;5272526;28;20027;-74
2022/01/03 06:09:38;;;;;;;16.48;3.10;;;;;;;9.68;100.00;101287.34;5270746;28;20085;-74
2022/01/03 06:12:09;;;;;;;20.98;2.90;;;;;;;9.68;100.00;101283.84;5266821;28;20407;-74
2022/01/03 06:14:39;;;;;;;19.17;3.15;;;;;;;9.69;100.00;101272.13;5281328;28;20044;-74
2022/01/03 06:17:11;;;;;;;23.70;3.15;;;;;;;9.71;100.00;101272.84;5283719;28;20494;-74
2022/01/03 06:19:42;;;;;;;18.15;2.90;;;;;;;9.66;100.00;101269.75;5270385;28;20032;-74
2022/01/03 06:22:13;;;;;;;17.08;3.45;;;;;;;9.63;100.00;101259.31;5270735;28;20055;-74
2022/01/03 06:24:44;;;;;;;17.92;3.05;;;;;;;9.54;100.00;101253.06;5282631;28;20139;-75
2022/01/03 06:27:16;;;;;;;20.70;3.33;;;;;;;9.50;100.00;101247.16;5281213;28;20031;-75
2022/01/03 06:29:46;;;;;;;21.83;3.80;;;;;;;9.48;100.00;101249.13;5283110;28;20030;-75
2022/01/03 06:32:17;;;;;;;17.92;3.85;;;;;;;9.46;100.00;101255.63;5281062;28;20024;-75
2022/01/03 06:34:47;;;;;;;28.38;3.53;;;;;;;9.40;100.00;101245.53;5275085;28;20101;-75
2022/01/03 06:37:18;;;;;;;28.50;3.30;;;;;;;9.34;100.00;101246.97;5278074;28;20467;-75
2022/01/03 06:39:49;;;;;;;26.90;3.50;;;;;;;9.27;100.00;101248.53;5281447;28;20023;-75
2022/01/03 06:42:19;;;;;;;27.00;3.55;;;;;;;9.19;100.00;101248.44;5279981;28;20210;-75
2022/01/03 06:44:50;;;;;;;30.15;6.07;;;;;;;9.17;100.00;101245.06;5272174;28;20020;-75
2022/01/03 06:47:20;;;;;;;25.95;8.10;;;;;;;9.17;100.00;101253.91;5279393;28;20024;-74
2022/01/03 06:49:51;;;;;;;22.48;3.80;;;;;;;9.26;100.00;101236.13;5280397;28;20030;-74
2022/01/03 06:52:22;;;;;;;25.23;3.40;;;;;;;9.33;100.00;101247.94;5283638;28;20126;-74
2022/01/03 06:54:52;;;;;;;31.77;5.53;;;;;;;9.41;100.00;101256.06;5283772;28;20151;-75
2022/01/03 06:57:23;;;;;;;40.05;4.25;;;;;;;9.44;100.00;101247.75;5284263;28;20028;-73
2022/01/03 06:59:54;;;;;;;29.05;4.88;;;;;;;9.46;100.00;101250.28;5283613;28;20654;-74
2022/01/03 07:02:24;;;;;;;23.60;3.17;;;;;;;9.45;100.00;101246.75;5283909;28;20083;-74
2022/01/03 07:04:55;;;;;;;24.50;5.13;;;;;;;9.45;100.00;101244.06;5285263;28;20456;-74
2022/01/03 07:07:26;;;;;;;22.27;3.40;;;;;;;9.43;100.00;101247.88;5287641;28;20031;-74
2022/01/03 07:09:56;;;;;;;25.65;3.30;;;;;;;9.45;100.00;101260.16;5270509;28;20433;-74
2022/01/03 07:12:27;;;;;;;24.55;4.18;;;;;;;9.51;100.00;101264.91;5279521;28;20111;-73
2022/01/03 07:20:17;;;;;;;24.63;4.30;;;;;;;9.62;100.00;101257.66;5277894;28;20020;-74
2022/01/03 07:22:47;;;;;;;31.17;4.22;;;;;;;9.60;100.00;101255.97;5270670;28;20028;-73
2022/01/03 07:25:17;;;;;;;26.60;3.95;;;;;;;9.60;100.00;101250.63;5286078;28;20016;-73
2022/01/03 07:27:48;;;;;;;28.52;3.30;;;;;;;9.62;100.00;101263.00;5284513;28;20388;-73
2022/01/03 07:30:18;;;;;;;27.08;3.55;;;;;;;9.70;100.00;101266.63;5285965;28;20123;-74
2022/01/03 07:32:50;;;;;;;19.25;3.40;;;;;;;9.71;100.00;101268.31;5279537;28;20020;-73
2022/01/03 07:35:21;;;;;;;26.85;3.63;;;;;;;9.67;100.00;101266.09;5278970;28;20426;-73
2022/01/03 07:37:53;;;;;;;23.00;3.58;;;;;;;9.66;100.00;101267.91;5285389;28;20027;-73
2022/01/03 07:40:24;;;;;;;36.25;3.92;;;;;;;9.66;100.00;101267.09;5285209;28;20027;-73
2022/01/03 07:42:56;;;;;;;25.13;3.83;;;;;;;9.65;100.00;101268.06;5281721;28;20112;-73
2022/01/03 07:45:27;;;;;;;21.30;4.10;;;;;;;9.64;100.00;101269.03;5268759;28;20081;-74
2022/01/03 07:47:57;;;;;;;25.30;4.00;;;;;;;9.63;100.00;101267.38;5286381;28;20031;-74
2022/01/03 07:50:29;;;;;;;21.52;4.53;;;;;;;9.67;100.00;101264.25;5284705;27;20073;-74
2022/01/03 07:53:00;;;;;;;22.35;4.18;;;;;;;9.66;100.00;101275.13;5267656;28;20431;-73
2022/01/03 07:55:31;;;;;;;19.83;4.35;;;;;;;9.67;100.00;101266.09;5275718;28;20034;-73
2022/01/03 07:58:03;;;;;;;19.95;4.30;;;;;;;9.62;100.00;101266.53;5271841;28;20114;-73
2022/01/03 08:00:33;;;;;;;21.30;3.83;;;;;;;9.65;100.00;101273.44;5276908;28;20035;-74
2022/01/03 08:03:04;;;;;;;18.58;3.42;;;;;;;9.68;100.00;101265.09;5271738;28;20487;-73
2022/01/03 08:05:34;;;;;;;20.70;2.90;;;;;;;9.67;100.00;101266.09;5275980;28;20030;-73
2022/01/03 08:08:08;;;;;;;27.20;4.35;;;;;;;9.62;100.00;101273.72;5279171;28;20114;-74
2022/01/03 08:10:41;;;;;;;28.13;4.47;;;;;;;9.67;100.00;101272.28;5274862;28;20488;-74
2022/01/03 08:13:13;;;;;;;26.60;4.03;;;;;;;9.67;100.00;101263.41;5274535;28;20092;-74
2022/01/03 08:15:43;;;;;;;22.65;3.83;;;;;;;9.66;100.00;101259.88;5271825;28;20366;-74
2022/01/03 08:18:14;;;;;;;25.75;4.00;;;;;;;9.66;100.00;101267.91;5274383;28;20035;-74
2022/01/03 08:20:45;;;;;;;19.77;3.58;;;;;;;9.68;100.00;101259.72;5281172;28;20611;-74
2022/01/03 08:23:15;;;;;;;22.75;5.50;;;;;;;9.65;100.00;101250.16;5267035;28;20020;-74
2022/01/03 08:25:45;;;;;;;15.65;2.92;;;;;;;9.63;100.00;101257.50;5269444;27;20053;-74
2022/01/03 08:28:16;;;;;;;28.25;3.72;;;;;;;9.66;100.00;101259.03;5265476;28;20032;-74
2022/01/03 08:30:46;;;;;;;20.10;3.70;;;;;;;9.68;100.00;101251.69;5283161;28;20027;-74
2022/01/03 08:33:17;;;;;;;17.90;3.50;;;;;;;9.67;100.00;101268.75;5281525;28;20532;-74
2022/01/03 08:35:47;;;;;;;22.67;4.57;;;;;;;9.63;100.00;101259.31;5283254;28;20404;-73
2022/01/03 08:38:18;;;;;;;24.75;3.20;;;;;;;9.60;100.00;101260.50;5282643;28;20030;-74
2022/01/03 08:40:48;;;;;;;24.25;3.78;;;;;;;9.61;100.00;101259.50;5283331;28;20024;-74
2022/01/03 08:43:19;;;;;;;26.42;4.10;;;;;;;9.65;100.00;101271.59;5282236;28;20671;-74
2022/01/03 08:45:50;;;;;;;25.73;4.20;;;;;;;9.70;100.00;101272.00;5282549;28;20046;-74
2022/01/03 08:48:20;;;;;;;27.17;4.85;;;;;;;9.73;100.00;101271.66;5270476;28;20030;-73
2022/01/03 08:50:51;;;;;;;25.70;4.97;;;;;;;9.75;100.00;101269.69;5268274;28;20020;-74
2022/01/03 08:53:26;;;;;;;20.38;4.28;;;;;;;9.76;100.00;101263.34;5263028;28;20543;-72
2022/01/03 08:55:57;;;;;;;24.80;4.03;;;;;;;9.81;100.00;101260.22;5277207;28;20454;-74
2022/01/03 08:58:28;;;;;;;26.90;3.90;;;;;;;9.82;100.00;101261.91;5282947;28;20102;-73
2022/01/03 09:00:58;;;;;;;26.73;3.60;;;;;;;9.86;100.00;101265.97;5281757;27;20102;-74
2022/01/03 09:03:29;;;;;;;23.10;3.97;;;;;;;9.83;100.00;101245.66;5283993;28;20058;-73
2022/01/03 09:06:00;;;;;;;16.55;3.22;;;;;;;9.86;100.00;101249.88;5264597;28;20095;-73
2022/01/03 09:08:30;;;;;;;16.50;3.10;;;;;;;9.89;100.00;101246.91;5277562;28;20087;-73
2022/01/03 09:11:01;;;;;;;31.45;3.97;;;;;;;9.91;100.00;101244.91;5278072;28;20624;-74
2022/01/03 09:13:31;;;;;;;19.35;3.25;;;;;;;9.92;100.00;101243.91;5280830;28;20511;-74
2022/01/03 09:16:06;;;;;;;22.17;3.50;;;;;;;9.89;100.00;101243.34;5278929;28;20059;-74
2022/01/03 09:18:38;;;;;;;23.92;4.05;;;;;;;9.94;100.00;101244.63;5281327;27;20015;-74
2022/01/03 09:21:10;;;;;;;29.90;4.00;;;;;;;9.90;100.00;101245.91;5293327;27;20011;-73
2022/01/03 09:23:45;;;;;;;15.40;3.13;;;;;;;9.93;100.00;101245.59;5285189;27;20020;-73
2022/01/03 09:29:06;;;;;;;31.85;4.55;;;;;;;9.99;100.00;101253.03;5288067;27;20020;-73
2022/01/03 09:31:38;;;;;;;26.13;3.47;;;;;;;10.06;100.00;101242.53;5289629;27;20023;-73
2022/01/03 09:34:09;;;;;;;17.48;3.97;;;;;;;10.09;100.00;101248.44;5293395;27;20141;-73
2022/01/03 09:36:39;;;;;;;14.93;3.20;;;;;;;10.16;100.00;101243.31;5282997;27;20512;-74
2022/01/03 09:39:10;;;;;;;20.83;4.00;;;;;;;10.18;100.00;101246.66;5295906;27;20023;-74
2022/01/03 09:41:56;;;;;;;21.98;3.83;;;;;;;10.25;100.00;101247.78;5284634;27;20047;-73
2022/01/03 09:44:30;;;;;;;19.63;3.85;;;;;;;10.24;100.00;101245.22;5288982;27;20035;-74
2022/01/03 09:47:04;;;;;;;14.93;2.85;;;;;;;10.26;100.00;101253.97;5288005;27;20084;-73
2022/01/03 09:49:37;;;;;;;17.92;3.92;;;;;;;10.35;100.00;101242.34;5289370;27;20085;-74
2022/01/03 09:52:08;;;;;;;19.73;4.15;;;;;;;10.43;100.00;101252.28;5286831;27;20019;-73
2022/01/03 09:54:38;;;;;;;28.00;4.43;;;;;;;10.41;100.00;101236.34;5282572;27;20030;-73
2022/01/03 09:57:11;;;;;;;19.90;3.97;;;;;;;10.42;100.00;101240.69;5289799;27;20061;-74
2022/01/03 09:59:42;;;;;;;17.42;3.85;;;;;;;10.38;100.00;101231.28;5292777;27;20500;-73
2022/01/03 10:02:15;;;;;;;21.13;4.95;;;;;;;10.34;100.00;101229.91;5289332;27;20342;-73
2022/01/03 10:04:47;;;;;;;13.27;4.63;;;;;;;10.27;100.00;101215.44;5280381;27;20063;-73
2022/01/03 10:07:19;;;;;;;23.60;4.30;;;;;;;10.29;100.00;101202.72;5286955;27;20023;-73
2022/01/03 10:09:51;;;;;;;23.42;3.63;;;;;;;10.20;100.00;101217.03;5289383;27;20428;-73
2022/01/03 10:12:21;;;;;;;17.75;3.92;;;;;;;10.23;100.00;101214.03;5290083;27;20042;-73
2022/01/03 10:14:52;;;;;;;15.05;2.47;;;;;;;10.22;100.00;101220.41;5297111;27;20023;-73
2022/01/03 10:17:22;;;;;;;18.98;3.58;;;;;;;10.26;100.00;101219.97;5285482;27;20023;-73
2022/01/03 10:19:55;;;;;;;26.23;3.25;;;;;;;10.19;100.00;101221.56;5290474;28;20113;-74
2022/01/03 10:22:30;;;;;;;27.90;5.07;;;;;;;10.24;100.00;101207.69;5290723;27;20035;-73
2022/01/03 10:25:10;;;;;;;25.92;4.05;;;;;;;10.19;100.00;101215.31;5281504;28;20027;-74
2022/01/03 10:27:54;;;;;;;26.23;4.13;;;;;;;10.15;100.00;101219.34;5286795;28;20022;-73
2022/01/03 10:30:45;;;;;;;26.02;3.90;;;;;;;10.04;100.00;101212.34;5290300;27;20076;-73
2022/01/03 10:33:18;;;;;;;27.17;5.22;;;;;;;10.04;100.00;101215.91;5285262;28;20503;-73
2022/01/03 10:35:52;;;;;;;21.98;5.22;;;;;;;10.03;100.00;101216.88;5292877;28;20031;-73
2022/01/03 10:38:44;;;;;;;37.22;5.88;;;;;;;10.07;100.00;101206.69;5284727;27;20106;-74
2022/01/03 10:41:18;;;;;;;30.92;5.38;;;;;;;10.00;100.00;101201.13;5291449;27;20295;-73
2022/01/03 10:43:51;;;;;;;28.67;4.35;;;;;;;9.96;100.00;101191.69;5286821;27;20020;-73
2022/01/03 10:46:26;;;;;;;25.13;4.35;;;;;;;9.89;100.00;101187.97;5290928;27;20400;-73
2022/01/03 10:49:18;;;;;;;16.65;3.42;;;;;;;9.89;100.00;101179.91;5297456;27;20047;-73
2022/01/03 10:51:48;;;;;;;29.10;4.53;;;;;;;9.91;100.00;101191.31;5289343;27;20106;-73
2022/01/03 10:54:19;;;;;;;40.00;5.35;;;;;;;9.86;100.00;101178.38;5291360;27;20163;-73
2022/01/03 10:56:50;;;;;;;29.73;5.30;;;;;;;9.90;100.00;101180.75;5290061;27;20035;-73
2022/01/03 10:59:28;;;;;;;21.60;3.72;;;;;;;9.85;100.00;101181.22;5290712;27;20557;-73
2022/01/03 11:01:59;;;;;;;29.77;4.95;;;;;;;9.82;100.00;101182.34;5288686;27;20151;-74
2022/01/03 11:04:53;;;;;;;31.92;4.65;;;;;;;9.79;100.00;101176.47;5289525;27;20589;-74
2022/01/03 11:13:14;;;;;;;32.20;5.63;;;;;;;9.65;100.00;101151.03;5291081;27;20019;-74
2022/01/03 11:16:05;;;;;;;33.60;5.88;;;;;;;9.61;100.00;101152.34;5291023;27;20949;-74
2022/01/03 11:18:36;;;;;;;27.48;5.28;;;;;;;9.63;100.00;101149.50;5290895;27;20031;-74
2022/01/03 11:21:13;;;;;;;27.08;4.10;;;;;;;9.60;100.00;101143.47;5294332;27;20047;-75
2022/01/03 11:23:46;;;;;;;20.58;3.50;;;;;;;9.63;100.00;101142.31;5287823;27;20341;-74
2022/01/03 11:26:20;;;;;;;24.10;4.57;;;;;;;9.71;100.00;101144.22;5291114;27;20011;-74
2022/01/03 11:28:51;;;;;;;29.48;4.28;;;;;;;9.79;100.00;101145.16;5288384;27;20055;-74
2022/01/03 11:31:22;;;;;;;25.75;4.55;;;;;;;9.81;100.00;101150.34;5287974;27;20023;-74
2022/01/03 11:33:52;;;;;;;25.40;5.40;;;;;;;9.89;100.00;101146.88;5287248;27;20029;-75
2022/01/03 11:36:24;;;;;;;28.17;5.45;;;;;;;9.86;100.00;101130.13;5283655;27;20511;-74
2022/01/03 11:39:00;;;;;;;27.55;5.20;;;;;;;9.99;100.00;101132.44;5279542;27;20484;-74
2022/01/03 11:41:32;;;;;;;34.47;6.47;;;;;;;10.02;100.00;101131.25;5291716;27;20032;-74
2022/01/03 11:44:03;;;;;;;21.63;4.38;;;;;;;10.08;100.00;101128.78;5292657;27;20537;-74
2022/01/03 11:46:34;;;;;;;26.60;4.97;;;;;;;10.09;100.00;101124.25;5278961;27;20420;-74
2022/01/03 11:49:05;;;;;;;25.77;4.72;;;;;;;10.16;100.00;101128.03;5283958;27;20019;-74
2022/01/03 11:51:37;;;;;;;29.05;5.50;;;;;;;10.19;100.00;101129.53;5290002;27;20303;-74
2022/01/03 11:54:10;;;;;;;20.15;4.82;;;;;;;10.13;100.00;101113.06;5279773;27;20342;-74
2022/01/03 11:56:45;;;;;;;29.63;4.40;;;;;;;10.11;100.00;101112.41;5282482;27;20468;-74